sensor_id;sensor_type;location;lat;lon;timestamp;temperature;humidity
72355;SHT30;60314;55.040;73.076;2022-12-15T00:02:19;-24.37;62.04
72355;SHT30;60314;55.040;73.076;2022-12-15T00:05:14;-24.41;62.13
72355;SHT30;60314;55.040;73.076;2022-12-15T00:08:10;-24.40;62.05
72355;SHT30;60314;55.040;73.076;2022-12-15T00:10:55;-24.31;61.90
72355;SHT30;60314;55.040;73.076;2022-12-15T00:13:41;-24.30;61.62
72355;SHT30;60314;55.040;73.076;2022-12-15T00:16:26;-24.33;61.53
72355;SHT30;60314;55.040;73.076;2022-12-15T00:19:11;-24.33;61.58
72355;SHT30;60314;55.040;73.076;2022-12-15T00:21:59;-24.41;61.46
72355;SHT30;60314;55.040;73.076;2022-12-15T00:24:48;-24.43;61.86
72355;SHT30;60314;55.040;73.076;2022-12-15T00:27:33;-24.37;61.81
72355;SHT30;60314;55.040;73.076;2022-12-15T00:30:20;-24.37;61.74
72355;SHT30;60314;55.040;73.076;2022-12-15T00:33:09;-24.38;61.80
72355;SHT30;60314;55.040;73.076;2022-12-15T00:35:57;-24.31;61.86
72355;SHT30;60314;55.040;73.076;2022-12-15T00:38:43;-24.40;61.71
72355;SHT30;60314;55.040;73.076;2022-12-15T00:41:16;-24.33;62.04
72355;SHT30;60314;55.040;73.076;2022-12-15T00:43:43;-24.37;62.12
72355;SHT30;60314;55.040;73.076;2022-12-15T00:46:11;-24.40;62.29
72355;SHT30;60314;55.040;73.076;2022-12-15T00:48:56;-24.44;62.47
72355;SHT30;60314;55.040;73.076;2022-12-15T00:51:23;-24.48;62.40
72355;SHT30;60314;55.040;73.076;2022-12-15T00:54:19;-24.61;62.66
72355;SHT30;60314;55.040;73.076;2022-12-15T00:57:04;-24.61;62.93
72355;SHT30;60314;55.040;73.076;2022-12-15T00:59:55;-24.69;63.20
72355;SHT30;60314;55.040;73.076;2022-12-15T01:02:48;-24.61;63.49
72355;SHT30;60314;55.040;73.076;2022-12-15T01:05:33;-24.60;63.38
72355;SHT30;60314;55.040;73.076;2022-12-15T01:08:18;-24.61;63.42
72355;SHT30;60314;55.040;73.076;2022-12-15T01:11:03;-24.67;63.34
72355;SHT30;60314;55.040;73.076;2022-12-15T01:13:57;-24.62;63.61
72355;SHT30;60314;55.040;73.076;2022-12-15T01:16:43;-24.65;63.46
72355;SHT30;60314;55.040;73.076;2022-12-15T01:19:27;-24.67;63.45
72355;SHT30;60314;55.040;73.076;2022-12-15T01:22:15;-24.65;63.50
72355;SHT30;60314;55.040;73.076;2022-12-15T01:24:41;-24.65;63.49
72355;SHT30;60314;55.040;73.076;2022-12-15T01:27:09;-24.65;63.35
72355;SHT30;60314;55.040;73.076;2022-12-15T01:29:35;-24.61;63.40
72355;SHT30;60314;55.040;73.076;2022-12-15T01:32:02;-24.55;63.32
72355;SHT30;60314;55.040;73.076;2022-12-15T01:34:29;-24.51;63.25
72355;SHT30;60314;55.040;73.076;2022-12-15T01:36:55;-24.52;63.13
72355;SHT30;60314;55.040;73.076;2022-12-15T01:39:22;-24.52;63.22
72355;SHT30;60314;55.040;73.076;2022-12-15T01:41:49;-24.54;63.12
72355;SHT30;60314;55.040;73.076;2022-12-15T01:44:25;-24.54;63.16
72355;SHT30;60314;55.040;73.076;2022-12-15T01:46:53;-24.43;62.96
72355;SHT30;60314;55.040;73.076;2022-12-15T01:49:25;-24.37;62.57
72355;SHT30;60314;55.040;73.076;2022-12-15T01:51:57;-24.31;62.18
72355;SHT30;60314;55.040;73.076;2022-12-15T01:54:54;-24.30;62.05
72355;SHT30;60314;55.040;73.076;2022-12-15T01:57:26;-24.33;62.14
72355;SHT30;60314;55.040;73.076;2022-12-15T01:59:57;-24.37;62.20
72355;SHT30;60314;55.040;73.076;2022-12-15T02:02:27;-24.36;62.29
72355;SHT30;60314;55.040;73.076;2022-12-15T02:04:59;-24.41;62.38
72355;SHT30;60314;55.040;73.076;2022-12-15T02:07:36;-24.38;62.54
72355;SHT30;60314;55.040;73.076;2022-12-15T02:10:04;-24.40;62.51
72355;SHT30;60314;55.040;73.076;2022-12-15T02:12:39;-24.47;62.62
72355;SHT30;60314;55.040;73.076;2022-12-15T02:21:07;-24.47;63.08
72355;SHT30;60314;55.040;73.076;2022-12-15T02:24:15;-24.48;62.90
72355;SHT30;60314;55.040;73.076;2022-12-15T02:33:14;-24.43;62.95
72355;SHT30;60314;55.040;73.076;2022-12-15T02:38:41;-24.41;63.33
72355;SHT30;60314;55.040;73.076;2022-12-15T02:41:31;-24.47;63.29
72355;SHT30;60314;55.040;73.076;2022-12-15T02:44:12;-24.52;63.56
72355;SHT30;60314;55.040;73.076;2022-12-15T02:58:04;-24.45;63.97
72355;SHT30;60314;55.040;73.076;2022-12-15T03:00:43;-24.45;64.16
72355;SHT30;60314;55.040;73.076;2022-12-15T03:03:13;-24.44;64.30
72355;SHT30;60314;55.040;73.076;2022-12-15T03:05:51;-24.48;64.36
72355;SHT30;60314;55.040;73.076;2022-12-15T03:08:20;-24.41;64.45
72355;SHT30;60314;55.040;73.076;2022-12-15T03:10:50;-24.41;64.38
72355;SHT30;60314;55.040;73.076;2022-12-15T03:13:28;-24.41;64.25
72355;SHT30;60314;55.040;73.076;2022-12-15T03:15:54;-24.38;64.31
72355;SHT30;60314;55.040;73.076;2022-12-15T03:18:21;-24.36;64.41
72355;SHT30;60314;55.040;73.076;2022-12-15T03:20:49;-24.33;64.20
72355;SHT30;60314;55.040;73.076;2022-12-15T03:23:16;-24.37;64.17
72355;SHT30;60314;55.040;73.076;2022-12-15T03:25:46;-24.28;64.29
72355;SHT30;60314;55.040;73.076;2022-12-15T03:28:17;-24.23;64.03
72355;SHT30;60314;55.040;73.076;2022-12-15T03:30:44;-24.21;63.98
72355;SHT30;60314;55.040;73.076;2022-12-15T03:33:10;-24.26;63.81
72355;SHT30;60314;55.040;73.076;2022-12-15T03:35:46;-24.21;63.90
72355;SHT30;60314;55.040;73.076;2022-12-15T03:38:18;-24.24;63.81
72355;SHT30;60314;55.040;73.076;2022-12-15T03:40:45;-24.16;63.99
72355;SHT30;60314;55.040;73.076;2022-12-15T03:43:11;-24.17;63.99
72355;SHT30;60314;55.040;73.076;2022-12-15T03:45:47;-24.06;63.87
72355;SHT30;60314;55.040;73.076;2022-12-15T03:48:21;-24.03;63.65
72355;SHT30;60314;55.040;73.076;2022-12-15T03:50:48;-24.00;63.57
72355;SHT30;60314;55.040;73.076;2022-12-15T03:53:15;-24.06;63.49
72355;SHT30;60314;55.040;73.076;2022-12-15T03:55:41;-23.99;63.87
72355;SHT30;60314;55.040;73.076;2022-12-15T03:58:09;-23.88;63.71
72355;SHT30;60314;55.040;73.076;2022-12-15T04:00:40;-23.92;63.58
72355;SHT30;60314;55.040;73.076;2022-12-15T04:03:11;-23.89;63.85
72355;SHT30;60314;55.040;73.076;2022-12-15T04:05:38;-23.88;63.94
72355;SHT30;60314;55.040;73.076;2022-12-15T04:08:06;-23.85;63.85
72355;SHT30;60314;55.040;73.076;2022-12-15T04:10:34;-23.83;63.96
72355;SHT30;60314;55.040;73.076;2022-12-15T04:13:08;-23.83;63.87
72355;SHT30;60314;55.040;73.076;2022-12-15T04:15:37;-23.83;63.74
72355;SHT30;60314;55.040;73.076;2022-12-15T04:18:08;-23.86;64.01
72355;SHT30;60314;55.040;73.076;2022-12-15T04:20:37;-23.78;63.96
72355;SHT30;60314;55.040;73.076;2022-12-15T04:23:04;-23.71;63.74
72355;SHT30;60314;55.040;73.076;2022-12-15T04:25:33;-23.68;63.58
72355;SHT30;60314;55.040;73.076;2022-12-15T04:28:18;-23.62;63.57
72355;SHT30;60314;55.040;73.076;2022-12-15T04:31:14;-23.54;63.39
72355;SHT30;60314;55.040;73.076;2022-12-15T04:34:03;-23.47;63.30
72355;SHT30;60314;55.040;73.076;2022-12-15T04:36:51;-23.38;63.15
72355;SHT30;60314;55.040;73.076;2022-12-15T04:39:39;-23.33;62.87
72355;SHT30;60314;55.040;73.076;2022-12-15T04:42:25;-23.33;62.77
72355;SHT30;60314;55.040;73.076;2022-12-15T04:45:11;-23.31;62.71
72355;SHT30;60314;55.040;73.076;2022-12-15T04:47:56;-23.24;62.82
72355;SHT30;60314;55.040;73.076;2022-12-15T04:50:42;-23.14;62.86
72355;SHT30;60314;55.040;73.076;2022-12-15T04:53:27;-23.06;62.85
72355;SHT30;60314;55.040;73.076;2022-12-15T04:56:14;-23.06;62.55
72355;SHT30;60314;55.040;73.076;2022-12-15T04:58:59;-23.00;62.88
72355;SHT30;60314;55.040;73.076;2022-12-15T05:01:45;-22.85;62.83
72355;SHT30;60314;55.040;73.076;2022-12-15T05:04:30;-22.76;62.58
72355;SHT30;60314;55.040;73.076;2022-12-15T05:07:15;-22.68;62.31
72355;SHT30;60314;55.040;73.076;2022-12-15T05:10:00;-22.67;62.33
72355;SHT30;60314;55.040;73.076;2022-12-15T05:12:45;-22.52;62.55
72355;SHT30;60314;55.040;73.076;2022-12-15T05:15:32;-22.40;62.38
72355;SHT30;60314;55.040;73.076;2022-12-15T05:18:17;-22.18;62.30
72355;SHT30;60314;55.040;73.076;2022-12-15T05:21:02;-22.17;61.73
72355;SHT30;60314;55.040;73.076;2022-12-15T05:23:56;-21.97;61.86
72355;SHT30;60314;55.040;73.076;2022-12-15T05:26:41;-21.92;61.47
72355;SHT30;60314;55.040;73.076;2022-12-15T05:29:25;-21.85;61.41
72355;SHT30;60314;55.040;73.076;2022-12-15T05:32:10;-21.87;61.25
72355;SHT30;60314;55.040;73.076;2022-12-15T05:34:38;-21.69;61.47
72355;SHT30;60314;55.040;73.076;2022-12-15T05:37:05;-21.56;61.24
72355;SHT30;60314;55.040;73.076;2022-12-15T05:39:33;-21.38;61.00
72355;SHT30;60314;55.040;73.076;2022-12-15T05:42:08;-21.45;60.37
72355;SHT30;60314;55.040;73.076;2022-12-15T05:44:40;-21.30;60.46
72355;SHT30;60314;55.040;73.076;2022-12-15T05:47:06;-21.30;60.42
72355;SHT30;60314;55.040;73.076;2022-12-15T05:49:34;-21.28;60.58
72355;SHT30;60314;55.040;73.076;2022-12-15T05:52:01;-21.23;60.58
72355;SHT30;60314;55.040;73.076;2022-12-15T05:54:28;-21.14;60.52
72355;SHT30;60314;55.040;73.076;2022-12-15T05:56:54;-21.21;60.53
72355;SHT30;60314;55.040;73.076;2022-12-15T05:59:21;-21.17;60.94
72355;SHT30;60314;55.040;73.076;2022-12-15T06:01:47;-21.03;61.19
72355;SHT30;60314;55.040;73.076;2022-12-15T06:04:14;-21.04;60.82
72355;SHT30;60314;55.040;73.076;2022-12-15T06:06:41;-21.00;60.91
72355;SHT30;60314;55.040;73.076;2022-12-15T06:09:08;-20.93;61.02
72355;SHT30;60314;55.040;73.076;2022-12-15T06:11:35;-20.99;60.89
72355;SHT30;60314;55.040;73.076;2022-12-15T06:14:02;-20.94;60.93
72355;SHT30;60314;55.040;73.076;2022-12-15T06:16:29;-21.04;60.62
72355;SHT30;60314;55.040;73.076;2022-12-15T06:18:58;-20.96;61.07
72355;SHT30;60314;55.040;73.076;2022-12-15T06:21:27;-20.92;60.77
72355;SHT30;60314;55.040;73.076;2022-12-15T06:24:00;-20.87;60.71
72355;SHT30;60314;55.040;73.076;2022-12-15T06:26:30;-20.90;60.27
72355;SHT30;60314;55.040;73.076;2022-12-15T06:28:58;-21.00;60.40
72355;SHT30;60314;55.040;73.076;2022-12-15T06:31:28;-21.02;60.60
72355;SHT30;60314;55.040;73.076;2022-12-15T06:34:03;-21.06;60.64
72355;SHT30;60314;55.040;73.076;2022-12-15T06:36:39;-21.03;60.82
72355;SHT30;60314;55.040;73.076;2022-12-15T06:39:09;-20.99;60.68
72355;SHT30;60314;55.040;73.076;2022-12-15T06:41:36;-20.92;60.62
72355;SHT30;60314;55.040;73.076;2022-12-15T06:44:03;-20.87;60.52
72355;SHT30;60314;55.040;73.076;2022-12-15T06:46:34;-20.76;60.68
72355;SHT30;60314;55.040;73.076;2022-12-15T06:49:00;-20.58;60.08
72355;SHT30;60314;55.040;73.076;2022-12-15T06:51:27;-20.58;59.25
72355;SHT30;60314;55.040;73.076;2022-12-15T06:53:54;-20.65;59.11
72355;SHT30;60314;55.040;73.076;2022-12-15T06:56:30;-20.69;59.47
72355;SHT30;60314;55.040;73.076;2022-12-15T06:58:57;-20.66;59.46
72355;SHT30;60314;55.040;73.076;2022-12-15T07:01:26;-20.69;59.45
72355;SHT30;60314;55.040;73.076;2022-12-15T07:03:53;-20.61;59.37
72355;SHT30;60314;55.040;73.076;2022-12-15T07:06:20;-20.61;59.35
72355;SHT30;60314;55.040;73.076;2022-12-15T07:08:57;-20.61;59.34
72355;SHT30;60314;55.040;73.076;2022-12-15T07:11:23;-20.56;59.57
72355;SHT30;60314;55.040;73.076;2022-12-15T07:13:51;-20.53;59.68
72355;SHT30;60314;55.040;73.076;2022-12-15T07:16:19;-20.63;59.45
72355;SHT30;60314;55.040;73.076;2022-12-15T07:18:46;-20.68;59.68
72355;SHT30;60314;55.040;73.076;2022-12-15T07:21:17;-20.62;60.18
72355;SHT30;60314;55.040;73.076;2022-12-15T07:23:44;-20.49;60.10
72355;SHT30;60314;55.040;73.076;2022-12-15T07:26:10;-20.47;59.78
72355;SHT30;60314;55.040;73.076;2022-12-15T07:28:40;-20.58;59.91
72355;SHT30;60314;55.040;73.076;2022-12-15T07:31:08;-20.62;60.09
72355;SHT30;60314;55.040;73.076;2022-12-15T07:33:37;-20.52;60.38
72355;SHT30;60314;55.040;73.076;2022-12-15T07:36:04;-20.49;60.18
72355;SHT30;60314;55.040;73.076;2022-12-15T07:38:33;-20.42;60.54
72355;SHT30;60314;55.040;73.076;2022-12-15T07:41:02;-20.34;60.48
72355;SHT30;60314;55.040;73.076;2022-12-15T07:43:38;-20.37;60.36
72355;SHT30;60314;55.040;73.076;2022-12-15T07:46:05;-20.28;60.76
72355;SHT30;60314;55.040;73.076;2022-12-15T07:48:37;-20.28;60.58
72355;SHT30;60314;55.040;73.076;2022-12-15T07:51:07;-20.21;60.59
72355;SHT30;60314;55.040;73.076;2022-12-15T07:53:34;-20.17;60.38
72355;SHT30;60314;55.040;73.076;2022-12-15T07:56:02;-20.16;60.24
72355;SHT30;60314;55.040;73.076;2022-12-15T07:58:33;-20.13;60.26
72355;SHT30;60314;55.040;73.076;2022-12-15T08:01:02;-20.10;60.10
72355;SHT30;60314;55.040;73.076;2022-12-15T08:03:29;-20.13;60.23
72355;SHT30;60314;55.040;73.076;2022-12-15T08:05:56;-20.08;60.45
72355;SHT30;60314;55.040;73.076;2022-12-15T08:08:23;-20.11;60.42
72355;SHT30;60314;55.040;73.076;2022-12-15T08:10:49;-20.10;60.53
72355;SHT30;60314;55.040;73.076;2022-12-15T08:13:16;-20.10;60.48
72355;SHT30;60314;55.040;73.076;2022-12-15T08:15:42;-20.10;60.71
72355;SHT30;60314;55.040;73.076;2022-12-15T08:18:09;-20.06;60.62
72355;SHT30;60314;55.040;73.076;2022-12-15T08:20:35;-20.20;60.71
72355;SHT30;60314;55.040;73.076;2022-12-15T08:23:02;-20.10;61.22
72355;SHT30;60314;55.040;73.076;2022-12-15T08:25:31;-20.01;61.01
72355;SHT30;60314;55.040;73.076;2022-12-15T08:28:02;-19.87;60.94
72355;SHT30;60314;55.040;73.076;2022-12-15T08:30:31;-19.76;60.71
72355;SHT30;60314;55.040;73.076;2022-12-15T08:32:59;-19.80;60.31
72355;SHT30;60314;55.040;73.076;2022-12-15T08:35:25;-19.86;60.22
72355;SHT30;60314;55.040;73.076;2022-12-15T08:38:02;-19.86;60.44
72355;SHT30;60314;55.040;73.076;2022-12-15T08:40:28;-19.77;60.73
72355;SHT30;60314;55.040;73.076;2022-12-15T08:42:55;-19.79;60.11
72355;SHT30;60314;55.040;73.076;2022-12-15T08:45:21;-19.89;60.26
72355;SHT30;60314;55.040;73.076;2022-12-15T08:47:48;-19.86;60.64
72355;SHT30;60314;55.040;73.076;2022-12-15T08:50:20;-19.89;60.51
72355;SHT30;60314;55.040;73.076;2022-12-15T08:52:48;-19.94;60.67
72355;SHT30;60314;55.040;73.076;2022-12-15T08:55:15;-19.97;60.98
72355;SHT30;60314;55.040;73.076;2022-12-15T08:57:46;-19.94;61.26
72355;SHT30;60314;55.040;73.076;2022-12-15T09:00:13;-19.89;61.01
72355;SHT30;60314;55.040;73.076;2022-12-15T09:02:41;-19.89;60.92
72355;SHT30;60314;55.040;73.076;2022-12-15T09:05:07;-19.80;60.69
72355;SHT30;60314;55.040;73.076;2022-12-15T09:07:34;-19.80;60.29
72355;SHT30;60314;55.040;73.076;2022-12-15T09:10:01;-19.77;60.43
72355;SHT30;60314;55.040;73.076;2022-12-15T09:12:27;-19.86;60.49
72355;SHT30;60314;55.040;73.076;2022-12-15T09:14:54;-19.87;60.76
72355;SHT30;60314;55.040;73.076;2022-12-15T09:17:20;-19.93;60.65
72355;SHT30;60314;55.040;73.076;2022-12-15T09:19:54;-19.83;60.85
72355;SHT30;60314;55.040;73.076;2022-12-15T09:22:20;-19.67;60.39
72355;SHT30;60314;55.040;73.076;2022-12-15T09:24:47;-19.63;59.92
72355;SHT30;60314;55.040;73.076;2022-12-15T09:27:14;-19.65;59.75
72355;SHT30;60314;55.040;73.076;2022-12-15T09:29:40;-19.73;59.54
72355;SHT30;60314;55.040;73.076;2022-12-15T09:32:07;-19.70;59.86
72355;SHT30;60314;55.040;73.076;2022-12-15T09:34:33;-19.73;59.80
72355;SHT30;60314;55.040;73.076;2022-12-15T09:37:10;-19.86;59.83
72355;SHT30;60314;55.040;73.076;2022-12-15T09:39:36;-19.83;60.04
72355;SHT30;60314;55.040;73.076;2022-12-15T09:42:04;-19.90;60.36
72355;SHT30;60314;55.040;73.076;2022-12-15T09:44:40;-19.89;60.55
72355;SHT30;60314;55.040;73.076;2022-12-15T09:47:50;-19.97;60.48
72355;SHT30;60314;55.040;73.076;2022-12-15T09:50:24;-19.98;60.77
72355;SHT30;60314;55.040;73.076;2022-12-15T09:52:55;-20.04;61.13
72355;SHT30;60314;55.040;73.076;2022-12-15T09:55:30;-20.03;61.15
72355;SHT30;60314;55.040;73.076;2022-12-15T09:58:25;-20.07;61.39
72355;SHT30;60314;55.040;73.076;2022-12-15T10:04:00;-20.16;61.75
72355;SHT30;60314;55.040;73.076;2022-12-15T10:06:48;-20.17;61.89
72355;SHT30;60314;55.040;73.076;2022-12-15T10:09:19;-20.18;61.99
72355;SHT30;60314;55.040;73.076;2022-12-15T10:12:09;-20.17;62.02
72355;SHT30;60314;55.040;73.076;2022-12-15T10:17:53;-20.30;62.44
72355;SHT30;60314;55.040;73.076;2022-12-15T10:20:25;-20.27;62.42
72355;SHT30;60314;55.040;73.076;2022-12-15T10:23:11;-20.22;62.45
72355;SHT30;60314;55.040;73.076;2022-12-15T10:25:38;-20.27;62.11
72355;SHT30;60314;55.040;73.076;2022-12-15T10:31:15;-20.41;62.90
72355;SHT30;60314;55.040;73.076;2022-12-15T10:33:46;-20.48;62.95
72355;SHT30;60314;55.040;73.076;2022-12-15T10:36:21;-20.45;63.16
72355;SHT30;60314;55.040;73.076;2022-12-15T10:38:47;-20.51;63.07
72355;SHT30;60314;55.040;73.076;2022-12-15T10:41:23;-20.56;63.17
72355;SHT30;60314;55.040;73.076;2022-12-15T10:43:53;-20.62;63.37
72355;SHT30;60314;55.040;73.076;2022-12-15T10:46:25;-20.68;63.74
72355;SHT30;60314;55.040;73.076;2022-12-15T10:48:57;-20.75;64.00
72355;SHT30;60314;55.040;73.076;2022-12-15T10:51:32;-20.76;64.08
72355;SHT30;60314;55.040;73.076;2022-12-15T10:56:55;-20.83;64.50
72355;SHT30;60314;55.040;73.076;2022-12-15T10:59:34;-20.87;64.59
72355;SHT30;60314;55.040;73.076;2022-12-15T11:07:38;-20.93;65.04
72355;SHT30;60314;55.040;73.076;2022-12-15T11:12:43;-21.00;65.31
72355;SHT30;60314;55.040;73.076;2022-12-15T11:20:59;-20.96;65.34
72355;SHT30;60314;55.040;73.076;2022-12-15T11:23:29;-20.94;65.48
72355;SHT30;60314;55.040;73.076;2022-12-15T11:26:02;-20.93;65.45
72355;SHT30;60314;55.040;73.076;2022-12-15T11:28:47;-20.93;65.33
72355;SHT30;60314;55.040;73.076;2022-12-15T11:31:37;-20.97;65.52
72355;SHT30;60314;55.040;73.076;2022-12-15T11:34:34;-21.00;65.66
72355;SHT30;60314;55.040;73.076;2022-12-15T11:40:40;-21.06;66.29
72355;SHT30;60314;55.040;73.076;2022-12-15T11:46:22;-21.04;66.45
72355;SHT30;60314;55.040;73.076;2022-12-15T11:49:15;-21.04;66.34
72355;SHT30;60314;55.040;73.076;2022-12-15T11:58:20;-20.93;66.05
72355;SHT30;60314;55.040;73.076;2022-12-15T12:01:09;-20.92;66.14
72355;SHT30;60314;55.040;73.076;2022-12-15T12:04:19;-20.94;66.03
72355;SHT30;60314;55.040;73.076;2022-12-15T12:07:15;-20.97;66.07
72355;SHT30;60314;55.040;73.076;2022-12-15T12:12:51;-20.93;65.83
72355;SHT30;60314;55.040;73.076;2022-12-15T12:15:32;-20.92;65.80
72355;SHT30;60314;55.040;73.076;2022-12-15T12:18:06;-20.93;65.72
72355;SHT30;60314;55.040;73.076;2022-12-15T12:20:49;-20.97;65.74
72355;SHT30;60314;55.040;73.076;2022-12-15T12:23:36;-20.97;65.94
72355;SHT30;60314;55.040;73.076;2022-12-15T12:26:20;-20.99;65.85
72355;SHT30;60314;55.040;73.076;2022-12-15T12:29:03;-21.00;66.15
72355;SHT30;60314;55.040;73.076;2022-12-15T12:37:48;-21.03;66.14
72355;SHT30;60314;55.040;73.076;2022-12-15T12:43:30;-21.03;66.22
72355;SHT30;60314;55.040;73.076;2022-12-15T12:46:08;-21.00;66.09
72355;SHT30;60314;55.040;73.076;2022-12-15T12:49:02;-20.92;66.12
72355;SHT30;60314;55.040;73.076;2022-12-15T12:51:41;-20.99;66.46
72355;SHT30;60314;55.040;73.076;2022-12-15T12:59:54;-20.97;66.46
72355;SHT30;60314;55.040;73.076;2022-12-15T13:07:31;-21.02;66.90
72355;SHT30;60314;55.040;73.076;2022-12-15T13:10:15;-21.02;66.72
72355;SHT30;60314;55.040;73.076;2022-12-15T13:12:53;-20.97;66.70
72355;SHT30;60314;55.040;73.076;2022-12-15T13:18:14;-21.04;66.88
72355;SHT30;60314;55.040;73.076;2022-12-15T13:20:42;-21.07;67.06
72355;SHT30;60314;55.040;73.076;2022-12-15T13:28:23;-21.04;67.25
72355;SHT30;60314;55.040;73.076;2022-12-15T13:33:49;-21.11;67.18
72355;SHT30;60314;55.040;73.076;2022-12-15T13:44:20;-21.11;67.25
72355;SHT30;60314;55.040;73.076;2022-12-15T13:46:53;-21.13;67.35
72355;SHT30;60314;55.040;73.076;2022-12-15T13:49:32;-21.08;67.42
72355;SHT30;60314;55.040;73.076;2022-12-15T13:52:37;-21.13;67.29
72355;SHT30;60314;55.040;73.076;2022-12-15T13:55:14;-21.18;67.32
72355;SHT30;60314;55.040;73.076;2022-12-15T13:57:54;-21.15;67.57
72355;SHT30;60314;55.040;73.076;2022-12-15T14:00:32;-21.20;67.50
72355;SHT30;60314;55.040;73.076;2022-12-15T14:03:08;-21.21;67.48
72355;SHT30;60314;55.040;73.076;2022-12-15T14:05:35;-21.21;67.54
72355;SHT30;60314;55.040;73.076;2022-12-15T14:08:14;-21.17;67.40
72355;SHT30;60314;55.040;73.076;2022-12-15T14:10:53;-21.23;67.43
72355;SHT30;60314;55.040;73.076;2022-12-15T14:13:26;-21.24;67.54
72355;SHT30;60314;55.040;73.076;2022-12-15T14:16:16;-21.31;67.57
72355;SHT30;60314;55.040;73.076;2022-12-15T14:19:21;-21.32;67.73
72355;SHT30;60314;55.040;73.076;2022-12-15T14:21:55;-21.32;67.63
72355;SHT30;60314;55.040;73.076;2022-12-15T14:24:30;-21.31;67.85
72355;SHT30;60314;55.040;73.076;2022-12-15T14:26:57;-21.34;67.85
72355;SHT30;60314;55.040;73.076;2022-12-15T14:29:29;-21.32;67.96
72355;SHT30;60314;55.040;73.076;2022-12-15T14:31:56;-21.31;67.86
72355;SHT30;60314;55.040;73.076;2022-12-15T14:34:38;-21.31;67.52
72355;SHT30;60314;55.040;73.076;2022-12-15T14:37:19;-21.36;67.54
72355;SHT30;60314;55.040;73.076;2022-12-15T14:39:52;-21.38;67.54
72355;SHT30;60314;55.040;73.076;2022-12-15T14:42:25;-21.42;67.71
72355;SHT30;60314;55.040;73.076;2022-12-15T14:44:57;-21.39;67.97
72355;SHT30;60314;55.040;73.076;2022-12-15T14:47:33;-21.41;67.90
72355;SHT30;60314;55.040;73.076;2022-12-15T14:50:08;-21.42;67.80
72355;SHT30;60314;55.040;73.076;2022-12-15T14:52:39;-21.44;68.14
72355;SHT30;60314;55.040;73.076;2022-12-15T14:57:57;-21.45;68.19
72355;SHT30;60314;55.040;73.076;2022-12-15T15:00:46;-21.46;68.20
72355;SHT30;60314;55.040;73.076;2022-12-15T15:05:41;-21.46;68.46
72355;SHT30;60314;55.040;73.076;2022-12-15T15:08:14;-21.45;68.66
72355;SHT30;60314;55.040;73.076;2022-12-15T15:10:44;-21.42;68.55
72355;SHT30;60314;55.040;73.076;2022-12-15T15:13:22;-21.36;68.66
72355;SHT30;60314;55.040;73.076;2022-12-15T15:15:52;-21.39;68.76
72355;SHT30;60314;55.040;73.076;2022-12-15T15:18:25;-21.35;68.84
72355;SHT30;60314;55.040;73.076;2022-12-15T15:21:01;-21.31;69.11
72355;SHT30;60314;55.040;73.076;2022-12-15T15:23:29;-21.34;68.84
72355;SHT30;60314;55.040;73.076;2022-12-15T15:26:05;-21.32;68.64
72355;SHT30;60314;55.040;73.076;2022-12-15T15:28:40;-21.27;68.75
72355;SHT30;60314;55.040;73.076;2022-12-15T15:34:02;-21.30;68.97
72355;SHT30;60314;55.040;73.076;2022-12-15T15:36:36;-21.32;69.05
72355;SHT30;60314;55.040;73.076;2022-12-15T15:39:13;-21.34;69.07
72355;SHT30;60314;55.040;73.076;2022-12-15T15:41:54;-21.35;68.89
72355;SHT30;60314;55.040;73.076;2022-12-15T15:44:21;-21.39;68.99
72355;SHT30;60314;55.040;73.076;2022-12-15T15:46:49;-21.39;69.11
72355;SHT30;60314;55.040;73.076;2022-12-15T15:49:22;-21.42;69.05
72355;SHT30;60314;55.040;73.076;2022-12-15T15:51:50;-21.45;68.98
72355;SHT30;60314;55.040;73.076;2022-12-15T15:54:19;-21.44;69.08
72355;SHT30;60314;55.040;73.076;2022-12-15T15:56:47;-21.45;68.64
72355;SHT30;60314;55.040;73.076;2022-12-15T15:59:15;-21.46;68.69
72355;SHT30;60314;55.040;73.076;2022-12-15T16:01:53;-21.45;68.84
72355;SHT30;60314;55.040;73.076;2022-12-15T16:04:21;-21.46;69.21
72355;SHT30;60314;55.040;73.076;2022-12-15T16:06:49;-21.42;68.90
72355;SHT30;60314;55.040;73.076;2022-12-15T16:09:17;-21.44;68.71
72355;SHT30;60314;55.040;73.076;2022-12-15T16:11:52;-21.42;68.78
72355;SHT30;60314;55.040;73.076;2022-12-15T16:14:19;-21.45;68.64
72355;SHT30;60314;55.040;73.076;2022-12-15T16:16:45;-21.46;68.51
72355;SHT30;60314;55.040;73.076;2022-12-15T16:19:13;-21.45;68.57
72355;SHT30;60314;55.040;73.076;2022-12-15T16:21:41;-21.45;68.79
72355;SHT30;60314;55.040;73.076;2022-12-15T16:24:15;-21.48;68.67
72355;SHT30;60314;55.040;73.076;2022-12-15T16:26:47;-21.48;68.95
72355;SHT30;60314;55.040;73.076;2022-12-15T16:29:16;-21.48;68.76
72355;SHT30;60314;55.040;73.076;2022-12-15T16:31:53;-21.42;69.08
72355;SHT30;60314;55.040;73.076;2022-12-15T16:34:20;-21.45;68.98
72355;SHT30;60314;55.040;73.076;2022-12-15T16:36:51;-21.52;69.13
72355;SHT30;60314;55.040;73.076;2022-12-15T16:39:32;-21.52;69.12
72355;SHT30;60314;55.040;73.076;2022-12-15T16:42:00;-21.48;69.14
72355;SHT30;60314;55.040;73.076;2022-12-15T16:44:27;-21.44;69.33
72355;SHT30;60314;55.040;73.076;2022-12-15T16:47:04;-21.44;69.07
72355;SHT30;60314;55.040;73.076;2022-12-15T16:49:32;-21.45;69.19
72355;SHT30;60314;55.040;73.076;2022-12-15T16:51:59;-21.49;69.15
72355;SHT30;60314;55.040;73.076;2022-12-15T16:54:34;-21.49;69.60
72355;SHT30;60314;55.040;73.076;2022-12-15T16:57:02;-21.48;69.32
72355;SHT30;60314;55.040;73.076;2022-12-15T16:59:30;-21.48;69.24
72355;SHT30;60314;55.040;73.076;2022-12-15T17:02:19;-21.48;68.98
72355;SHT30;60314;55.040;73.076;2022-12-15T17:04:47;-21.48;69.10
72355;SHT30;60314;55.040;73.076;2022-12-15T17:07:14;-21.42;69.04
72355;SHT30;60314;55.040;73.076;2022-12-15T17:09:41;-21.46;68.89
72355;SHT30;60314;55.040;73.076;2022-12-15T17:12:14;-21.39;69.05
72355;SHT30;60314;55.040;73.076;2022-12-15T17:14:52;-21.35;68.83
72355;SHT30;60314;55.040;73.076;2022-12-15T17:17:19;-21.38;68.87
72355;SHT30;60314;55.040;73.076;2022-12-15T17:19:45;-21.36;68.91
72355;SHT30;60314;55.040;73.076;2022-12-15T17:22:24;-21.34;69.01
72355;SHT30;60314;55.040;73.076;2022-12-15T17:24:51;-21.34;68.81
72355;SHT30;60314;55.040;73.076;2022-12-15T17:27:28;-21.35;68.85
72355;SHT30;60314;55.040;73.076;2022-12-15T17:30:00;-21.41;68.78
72355;SHT30;60314;55.040;73.076;2022-12-15T17:32:27;-21.39;69.13
72355;SHT30;60314;55.040;73.076;2022-12-15T17:35:01;-21.41;69.02
72355;SHT30;60314;55.040;73.076;2022-12-15T17:37:29;-21.39;69.35
72355;SHT30;60314;55.040;73.076;2022-12-15T17:40:01;-21.39;69.36
72355;SHT30;60314;55.040;73.076;2022-12-15T17:42:29;-21.41;69.45